createdAt,value
2023-03-22T00:00:05.978Z,7.40
2023-03-22T00:02:35.597Z,7.75
2023-03-22T00:05:03.836Z,9.90
2023-03-22T00:07:32.321Z,8.05
2023-03-22T00:10:00.563Z,10.90
2023-03-22T00:12:28.775Z,7.82
2023-03-22T00:14:57.319Z,7.40
2023-03-22T00:17:27.576Z,8.00
2023-03-22T00:19:58.317Z,9.57
2023-03-22T00:22:26.618Z,11.80
2023-03-22T00:24:54.933Z,6.55
2023-03-22T00:27:23.165Z,7.45
2023-03-22T00:29:53.791Z,8.43
2023-03-22T00:32:22.231Z,8.98
2023-03-22T00:34:51.504Z,7.13
2023-03-22T00:37:21.069Z,7.38
2023-03-22T00:39:49.227Z,7.97
2023-03-22T00:42:17.414Z,7.85
2023-03-22T00:44:45.591Z,8.13
2023-03-22T00:47:14.125Z,8.40
2023-03-22T00:49:42.353Z,11.38
2023-03-22T00:52:10.801Z,9.55
2023-03-22T00:54:40.640Z,9.32
2023-03-22T00:57:08.938Z,6.68
2023-03-22T00:59:38.846Z,7.55
2023-03-22T01:02:08.266Z,7.30
2023-03-22T01:04:37.242Z,7.25
2023-03-22T01:07:07.752Z,6.40
2023-03-22T01:09:37.505Z,6.03
2023-03-22T01:12:07.666Z,6.40
2023-03-22T01:14:36.040Z,5.20
2023-03-22T01:17:04.580Z,5.40
2023-03-22T01:19:32.857Z,8.52
2023-03-22T01:22:01.529Z,5.68
2023-03-22T01:24:30.338Z,7.25
2023-03-22T01:26:58.647Z,5.60
2023-03-22T01:29:28.268Z,6.75
2023-03-22T01:31:56.451Z,6.00
2023-03-22T01:34:25.021Z,6.75
2023-03-22T01:36:54.462Z,6.38
2023-03-22T01:39:23.950Z,7.47
2023-03-22T01:41:57.197Z,6.30
2023-03-22T01:44:31.459Z,5.68
2023-03-22T01:47:01.565Z,6.35
2023-03-22T01:49:35.690Z,4.47
2023-03-22T01:52:09.653Z,5.68
2023-03-22T01:54:53.530Z,5.47
2023-03-22T01:57:33.390Z,7.95
2023-03-22T02:00:10.970Z,4.80
2023-03-22T02:02:42.403Z,5.43
2023-03-22T02:05:23.226Z,4.88
2023-03-22T02:07:53.003Z,7.75
2023-03-22T02:10:28.067Z,6.50
2023-03-22T02:13:28.215Z,5.90
2023-03-22T02:16:31.043Z,4.45
2023-03-22T02:19:42.568Z,4.32
2023-03-22T02:22:49.966Z,6.47
2023-03-22T02:25:49.530Z,4.95
2023-03-22T02:28:34.130Z,3.70
2023-03-22T02:31:40.728Z,6.68
2023-03-22T02:34:37.376Z,5.43
2023-03-22T02:37:54.570Z,6.18
2023-03-22T02:40:33.016Z,5.07
2023-03-22T02:43:10.359Z,5.47
2023-03-22T02:45:49.436Z,4.57
2023-03-22T02:48:27.845Z,7.17
2023-03-22T02:51:01.601Z,4.43
2023-03-22T02:53:37.454Z,5.53
2023-03-22T02:56:14.110Z,5.18
2023-03-22T02:58:47.494Z,5.30
2023-03-22T03:01:24.753Z,4.83
2023-03-22T03:03:58.278Z,5.97
2023-03-22T03:06:31.113Z,3.25
2023-03-22T03:09:02.766Z,4.03
2023-03-22T03:11:33.038Z,5.90
2023-03-22T03:14:02.197Z,5.97
2023-03-22T03:16:36.705Z,5.22
2023-03-22T03:19:19.849Z,3.83
2023-03-22T03:22:02.421Z,5.07
2023-03-22T03:24:39.823Z,5.28
2023-03-22T03:27:20.129Z,5.33
2023-03-22T03:29:56.422Z,4.38
2023-03-22T03:32:35.225Z,4.17
2023-03-22T03:35:17.994Z,5.10
2023-03-22T03:37:50.655Z,5.53
2023-03-22T03:40:25.859Z,5.67
2023-03-22T03:42:58.826Z,6.67
2023-03-22T03:45:27.421Z,4.67
2023-03-22T03:48:02.315Z,5.57
2023-03-22T03:50:31.129Z,3.97
2023-03-22T03:52:59.931Z,4.43
2023-03-22T03:55:29.302Z,4.83
2023-03-22T03:57:59.052Z,4.37
2023-03-22T04:00:27.383Z,3.97
2023-03-22T04:03:19.310Z,4.53
2023-03-22T04:06:06.649Z,6.07
2023-03-22T04:08:38.713Z,7.33
2023-03-22T04:11:08.138Z,4.67
2023-03-22T04:13:38.358Z,4.67
2023-03-22T04:16:11.667Z,4.77
2023-03-22T04:18:39.945Z,4.37
2023-03-22T04:21:12.113Z,6.63
2023-03-22T04:23:50.122Z,5.03
2023-03-22T04:26:19.854Z,6.47
2023-03-22T04:29:04.257Z,4.93
2023-03-22T04:31:35.691Z,6.60
2023-03-22T04:34:15.176Z,7.80
2023-03-22T04:36:53.163Z,5.40
2023-03-22T04:39:45.662Z,6.37
2023-03-22T04:42:32.310Z,4.77
2023-03-22T04:45:15.504Z,5.00
2023-03-22T04:47:47.209Z,5.67
2023-03-22T04:50:15.594Z,6.20
2023-03-22T04:52:50.893Z,7.37
2023-03-22T04:55:19.323Z,5.97
2023-03-22T04:57:47.575Z,7.03
2023-03-22T05:00:18.702Z,5.77
2023-03-22T05:02:47.115Z,8.50
2023-03-22T05:05:27.244Z,4.80
2023-03-22T05:07:56.253Z,5.80
2023-03-22T05:10:25.816Z,3.37
2023-03-22T05:12:55.311Z,5.40
2023-03-22T05:15:28.497Z,3.77
2023-03-22T05:17:56.688Z,6.63
2023-03-22T05:20:25.303Z,5.40
2023-03-22T05:23:19.241Z,5.07
2023-03-22T05:25:51.845Z,7.47
2023-03-22T05:28:22.366Z,7.67
2023-03-22T05:31:24.815Z,5.67
2023-03-22T05:33:58.342Z,3.57
2023-03-22T05:36:29.746Z,5.17
2023-03-22T05:39:21.186Z,4.40
2023-03-22T05:41:49.731Z,6.03
2023-03-22T05:44:18.385Z,6.57
2023-03-22T05:47:03.724Z,5.40
2023-03-22T05:49:35.851Z,6.93
2023-03-22T05:52:06.046Z,5.23
2023-03-22T05:55:07.907Z,11.07
2023-03-22T05:57:36.480Z,5.93
2023-03-22T06:00:13.249Z,8.47
2023-03-22T06:02:48.269Z,8.10
2023-03-22T06:05:18.437Z,7.67
2023-03-22T06:07:47.653Z,5.07
2023-03-22T06:10:18.280Z,9.53
2023-03-22T06:12:47.378Z,5.83
2023-03-22T06:15:24.393Z,6.60
2023-03-22T06:18:02.980Z,8.00
2023-03-22T06:20:35.320Z,7.80
2023-03-22T06:23:10.525Z,8.77
2023-03-22T06:25:41.036Z,7.43
2023-03-22T06:28:09.468Z,6.47
2023-03-22T06:30:40.158Z,6.43
2023-03-22T06:33:48.856Z,7.30
2023-03-22T06:36:31.681Z,6.90
2023-03-22T06:39:15.218Z,6.80
2023-03-22T06:41:45.893Z,8.30
2023-03-22T06:44:14.802Z,8.37
2023-03-22T06:47:03.786Z,8.17
2023-03-22T06:50:00.453Z,10.77
2023-03-22T06:52:43.131Z,8.03
2023-03-22T06:55:11.478Z,8.77
2023-03-22T06:57:39.742Z,8.40
2023-03-22T07:00:12.796Z,9.53
2023-03-22T07:02:41.071Z,9.37
2023-03-22T07:05:27.881Z,12.80
2023-03-22T07:07:56.143Z,9.87
2023-03-22T07:10:24.637Z,10.90
2023-03-22T07:12:52.966Z,10.67
2023-03-22T07:15:24.418Z,9.38
2023-03-22T07:18:02.037Z,9.13
2023-03-22T07:20:36.730Z,10.03
2023-03-22T07:23:05.875Z,9.55
2023-03-22T07:25:40.386Z,9.35
2023-03-22T07:28:29.565Z,9.75
2023-03-22T07:31:03.804Z,9.02
2023-03-22T07:33:42.231Z,8.07
2023-03-22T07:36:12.944Z,7.90
2023-03-22T07:38:41.878Z,8.13
2023-03-22T07:41:15.772Z,7.63
2023-03-22T07:44:11.216Z,8.05
2023-03-22T07:46:52.441Z,6.85
2023-03-22T07:49:28.188Z,11.13
2023-03-22T07:52:11.120Z,10.63
2023-03-22T07:54:39.487Z,7.18
2023-03-22T07:57:09.434Z,8.45
2023-03-22T07:59:46.147Z,7.28
2023-03-22T08:02:16.062Z,7.03
2023-03-22T08:04:52.255Z,7.57
2023-03-22T08:07:56.924Z,8.88
2023-03-22T08:10:25.337Z,9.00
2023-03-22T08:12:54.598Z,6.50
2023-03-22T08:15:26.575Z,6.70
2023-03-22T08:17:57.793Z,7.93
2023-03-22T08:20:34.111Z,6.70
2023-03-22T08:23:12.085Z,6.15
2023-03-22T08:26:13.016Z,8.10
2023-03-22T08:28:41.984Z,7.60
2023-03-22T08:31:15.501Z,4.35
2023-03-22T08:33:46.190Z,6.65
2023-03-22T08:36:17.417Z,5.72
2023-03-22T08:38:53.762Z,4.18
2023-03-22T08:41:30.343Z,6.95
2023-03-22T08:43:58.751Z,4.97
2023-03-22T08:46:27.052Z,4.97
2023-03-22T08:48:55.454Z,4.70
2023-03-22T08:51:32.169Z,8.60
2023-03-22T08:54:15.691Z,3.75
2023-03-22T08:57:03.475Z,5.47
2023-03-22T08:59:47.192Z,3.40
2023-03-22T09:02:35.600Z,3.83
2023-03-22T09:05:04.872Z,3.25
2023-03-22T09:07:33.813Z,2.58
2023-03-22T09:10:18.001Z,3.40
2023-03-22T09:12:49.171Z,3.30
2023-03-22T09:15:17.901Z,2.85
2023-03-22T09:17:50.249Z,2.00
2023-03-22T09:20:18.822Z,2.65
2023-03-22T09:22:48.757Z,3.28
2023-03-22T09:25:21.265Z,3.63
2023-03-22T09:27:51.088Z,3.45
2023-03-22T09:30:19.255Z,1.77
2023-03-22T09:32:47.807Z,3.97
2023-03-22T09:35:17.915Z,3.63
2023-03-22T09:37:58.842Z,3.08
2023-03-22T09:40:32.845Z,2.35
2023-03-22T09:43:07.232Z,2.13
2023-03-22T09:45:41.744Z,2.45
2023-03-22T09:48:20.610Z,2.60
2023-03-22T09:50:52.651Z,2.42
2023-03-22T09:53:23.607Z,2.22
2023-03-22T09:56:01.696Z,3.10
2023-03-22T09:58:36.774Z,3.30
2023-03-22T10:01:19.619Z,1.98
2023-03-22T10:04:26.159Z,1.10
2023-03-22T10:07:10.227Z,2.17
2023-03-22T10:09:54.208Z,1.45
2023-03-22T10:12:30.453Z,2.33
2023-03-22T10:15:07.708Z,1.35
2023-03-22T10:17:39.980Z,1.63
2023-03-22T10:20:22.316Z,1.65
2023-03-22T10:22:53.697Z,1.52
2023-03-22T10:25:32.744Z,3.00
2023-03-22T10:28:03.497Z,5.85
2023-03-22T10:30:40.589Z,2.22
2023-03-22T10:33:17.691Z,1.77
2023-03-22T10:35:46.980Z,2.15
2023-03-22T10:38:24.733Z,3.47
2023-03-22T10:40:56.634Z,2.95
2023-03-22T10:43:33.735Z,4.50
2023-03-22T10:46:05.058Z,3.80
2023-03-22T10:48:37.239Z,3.67
2023-03-22T10:51:07.496Z,2.33
2023-03-22T10:53:41.991Z,3.67
2023-03-22T10:56:15.576Z,2.90
2023-03-22T10:58:45.969Z,2.67
2023-03-22T11:01:17.983Z,1.67
2023-03-22T11:03:52.402Z,3.22
2023-03-22T11:06:25.747Z,3.95
2023-03-22T11:08:57.940Z,2.40
2023-03-22T11:11:30.306Z,1.60
2023-03-22T11:14:09.541Z,3.42
2023-03-22T11:16:48.445Z,3.55
2023-03-22T11:19:25.775Z,1.92
2023-03-22T11:21:56.187Z,2.35
2023-03-22T11:24:27.347Z,2.92
2023-03-22T11:27:08.261Z,1.63
2023-03-22T11:29:47.531Z,2.85
2023-03-22T11:32:28.785Z,2.50
2023-03-22T11:35:03.537Z,2.15
2023-03-22T11:37:32.038Z,4.78
2023-03-22T11:40:05.300Z,3.00
2023-03-22T11:42:36.733Z,1.83
2023-03-22T11:45:09.437Z,3.08
2023-03-22T11:47:40.194Z,1.40
2023-03-22T11:50:22.185Z,4.18
2023-03-22T11:52:50.659Z,3.33
2023-03-22T11:55:19.674Z,5.32
2023-03-22T11:57:51.909Z,2.75
2023-03-22T12:00:26.964Z,3.25
2023-03-22T12:03:00.396Z,1.38
2023-03-22T12:05:32.932Z,1.15
2023-03-22T12:08:10.359Z,1.77
2023-03-22T12:10:42.815Z,0.85
2023-03-22T12:13:19.701Z,2.13
2023-03-22T12:15:55.824Z,1.58
2023-03-22T12:18:30.693Z,1.17
2023-03-22T12:21:01.991Z,2.67
2023-03-22T12:23:35.263Z,2.60
2023-03-22T12:26:08.344Z,1.92
2023-03-22T12:28:42.700Z,1.60
2023-03-22T12:31:19.550Z,1.65
2023-03-22T12:33:51.263Z,1.48
2023-03-22T12:36:24.548Z,0.73
2023-03-22T12:38:57.049Z,1.55
2023-03-22T12:41:32.584Z,1.27
2023-03-22T12:44:05.122Z,0.80
2023-03-22T12:46:45.499Z,2.13
2023-03-22T12:49:24.392Z,2.10
2023-03-22T12:52:01.424Z,1.30
2023-03-22T12:54:30.573Z,1.45
2023-03-22T12:56:59.418Z,1.48
2023-03-22T12:59:32.463Z,0.43
2023-03-22T13:02:15.631Z,1.70
2023-03-22T13:04:56.836Z,1.48
2023-03-22T13:07:51.422Z,0.90
2023-03-22T13:10:50.844Z,1.75
2023-03-22T13:13:45.247Z,1.35
2023-03-22T13:16:24.649Z,1.38
2023-03-22T13:19:04.406Z,0.63
2023-03-22T13:21:36.665Z,0.95
2023-03-22T13:24:24.164Z,1.75
2023-03-22T13:26:54.634Z,1.60
2023-03-22T13:29:25.902Z,0.60
2023-03-22T13:32:01.088Z,0.65
2023-03-22T13:34:39.393Z,2.22
2023-03-22T13:37:12.653Z,0.80
2023-03-22T13:39:41.916Z,1.90
2023-03-22T13:42:21.589Z,1.13
2023-03-22T13:44:59.919Z,0.93
2023-03-22T13:47:38.430Z,1.90
2023-03-22T13:50:19.900Z,1.15
2023-03-22T13:52:59.904Z,1.75
2023-03-22T13:55:43.705Z,2.03
2023-03-22T13:58:32.951Z,1.60
2023-03-22T14:01:02.117Z,0.85
2023-03-22T14:03:35.470Z,1.90
2023-03-22T14:06:15.914Z,1.45
2023-03-22T14:08:48.242Z,2.20
2023-03-22T14:11:26.636Z,1.23
2023-03-22T14:14:01.385Z,0.30
2023-03-22T14:16:41.258Z,2.08
2023-03-22T14:19:17.393Z,0.40
